Time;durP1;ratioP1;P1;durP2;ratioP2;P2;SDS_P1;SDS_P2;PMS_P1;PMS_P2;Temp;Humidity;BMP_temperature;BMP_pressure;BME280_temperature;BME280_humidity;BME280_pressure;Samples;Min_cycle;Max_cycle;Signal;HPM_P1;HPM_P2
2023/10/19 00:01:58;;;;;;;2.28;2.17;;;16.00;69.40;;;;;;5113433;28;20169;-63
2023/10/19 00:04:24;;;;;;;2.83;2.30;;;15.90;69.30;;;;;;5113955;28;20204;-64
2023/10/19 00:06:50;;;;;;;2.58;2.38;;;16.00;69.60;;;;;;5113168;28;20173;-64
2023/10/19 00:09:16;;;;;;;2.42;2.28;;;15.90;69.50;;;;;;5113539;28;20204;-64
2023/10/19 00:11:42;;;;;;;2.15;2.00;;;15.90;69.50;;;;;;5113494;28;20180;-64
2023/10/19 00:14:15;;;;;;;2.13;1.92;;;15.90;69.50;;;;;;5113084;28;20720;-64
2023/10/19 00:16:50;;;;;;;2.58;2.38;;;15.90;69.60;;;;;;5113981;28;20193;-64
2023/10/19 00:19:19;;;;;;;3.03;2.47;;;15.90;69.60;;;;;;5113413;28;20184;-64
2023/10/19 00:21:50;;;;;;;1.98;1.88;;;15.90;69.50;;;;;;5112878;28;20208;-64
2023/10/19 00:24:17;;;;;;;2.00;1.90;;;15.90;69.60;;;;;;5113181;28;20229;-63
2023/10/19 00:26:44;;;;;;;2.17;2.00;;;15.90;69.60;;;;;;5113603;28;20184;-64
2023/10/19 00:29:30;;;;;;;2.33;2.20;;;15.90;69.60;;;;;;5112673;28;20216;-63
2023/10/19 00:31:59;;;;;;;2.28;2.13;;;15.90;69.70;;;;;;5113532;28;20191;-63
2023/10/19 00:34:25;;;;;;;2.50;2.20;;;15.90;69.60;;;;;;5113134;28;20553;-65
2023/10/19 00:36:55;;;;;;;3.00;2.67;;;15.90;69.70;;;;;;5111963;28;20581;-64
2023/10/19 00:39:21;;;;;;;2.05;1.95;;;15.90;69.70;;;;;;5113202;28;20177;-65
2023/10/19 00:41:47;;;;;;;2.10;1.90;;;15.90;69.70;;;;;;5113047;28;20696;-64
2023/10/19 00:44:16;;;;;;;2.22;2.13;;;15.90;69.70;;;;;;5112427;28;20177;-64
2023/10/19 00:49:09;;;;;;;2.28;2.08;;;15.90;69.70;;;;;;5112196;28;20532;-63
2023/10/19 00:51:53;;;;;;;2.10;2.00;;;15.90;69.80;;;;;;5112945;28;20274;-64
2023/10/19 00:54:35;;;;;;;2.50;2.30;;;15.90;69.80;;;;;;5113001;28;20183;-64
2023/10/19 00:57:08;;;;;;;3.55;2.33;;;15.90;69.70;;;;;;5096255;28;20260;-64
2023/10/19 00:59:42;;;;;;;1.98;1.88;;;15.90;69.80;;;;;;5112685;28;20177;-64
2023/10/19 01:02:19;;;;;;;2.50;2.30;;;15.90;69.70;;;;;;5113126;28;20237;-63
2023/10/19 01:04:46;;;;;;;3.33;2.35;;;15.90;69.80;;;;;;5112445;28;20238;-63
2023/10/19 01:07:15;;;;;;;2.30;2.10;;;15.90;69.80;;;;;;5112688;28;20603;-63
2023/10/19 01:09:43;;;;;;;2.53;2.33;;;15.90;69.80;;;;;;5112819;28;20216;-64
2023/10/19 01:15:12;;;;;;;2.80;2.50;;;15.90;69.80;;;;;;5113211;28;20549;-63
2023/10/19 01:17:40;;;;;;;2.80;2.25;;;15.90;69.80;;;;;;5112064;28;20688;-64
2023/10/19 01:20:19;;;;;;;2.17;2.08;;;15.80;69.70;;;;;;5112744;28;20666;-64
2023/10/19 01:23:08;;;;;;;2.05;1.85;;;15.80;69.70;;;;;;5112836;28;20188;-64
2023/10/19 01:28:42;;;;;;;2.47;2.28;;;15.80;69.80;;;;;;5112873;28;20176;-63
2023/10/19 01:31:08;;;;;;;2.22;2.13;;;15.90;69.90;;;;;;5112855;28;20187;-64
2023/10/19 01:33:34;;;;;;;2.40;2.20;;;15.80;69.80;;;;;;5112109;28;20177;-64
2023/10/19 01:38:47;;;;;;;2.50;2.30;;;15.80;69.80;;;;;;5111900;28;20212;-65
2023/10/19 01:41:19;;;;;;;2.40;2.20;;;15.80;69.90;;;;;;5112296;28;20701;-64
2023/10/19 01:43:46;;;;;;;2.15;1.95;;;15.80;69.80;;;;;;5112595;28;20264;-63
2023/10/19 01:46:12;;;;;;;2.17;2.03;;;15.80;70.00;;;;;;5111917;28;20179;-64
2023/10/19 01:48:42;;;;;;;2.20;2.05;;;15.80;70.00;;;;;;5116508;28;20722;-64
2023/10/19 01:51:13;;;;;;;2.42;2.30;;;15.80;69.90;;;;;;5116201;28;20225;-64
2023/10/19 01:53:46;;;;;;;2.35;2.15;;;15.80;69.90;;;;;;5115590;28;20173;-64
2023/10/19 01:56:12;;;;;;;2.28;2.08;;;15.90;70.00;;;;;;5116151;28;20624;-64
2023/10/19 01:58:39;;;;;;;2.60;2.40;;;15.80;70.00;;;;;;5116537;28;20188;-65
2023/10/19 02:03:37;;;;;;;2.28;2.08;;;15.80;70.00;;;;;;5116295;28;20172;-64
2023/10/19 02:06:10;;;;;;;2.67;2.35;;;15.80;70.00;;;;;;5116000;28;20177;-63
2023/10/19 02:08:38;;;;;;;2.10;2.00;;;15.80;70.00;;;;;;5115306;28;20663;-63
2023/10/19 02:11:13;;;;;;;2.60;2.40;;;15.80;70.10;;;;;;5116249;28;20222;-64
2023/10/19 02:13:42;;;;;;;1.95;1.80;;;15.80;70.00;;;;;;5115487;28;20180;-64
2023/10/19 02:16:08;;;;;;;2.20;2.10;;;15.80;70.00;;;;;;5116192;28;20587;-64
2023/10/19 02:18:34;;;;;;;2.33;2.13;;;15.80;70.10;;;;;;5116018;28;20688;-64
2023/10/19 02:21:06;;;;;;;2.20;2.03;;;15.80;70.00;;;;;;5114948;28;20169;-63
2023/10/19 02:23:35;;;;;;;2.00;1.90;;;15.80;70.10;;;;;;5116072;28;20181;-64
2023/10/19 02:26:02;;;;;;;2.05;1.92;;;15.80;70.00;;;;;;5115888;28;20245;-63
2023/10/19 02:28:31;;;;;;;2.38;2.17;;;15.80;70.00;;;;;;5114976;28;20181;-64
2023/10/19 02:30:58;;;;;;;2.15;1.98;;;15.80;70.10;;;;;;5115854;28;20538;-63
2023/10/19 02:33:26;;;;;;;2.50;2.30;;;15.80;70.10;;;;;;5115602;28;20181;-64
2023/10/19 02:35:51;;;;;;;2.20;2.00;;;15.80;70.20;;;;;;5114863;28;20185;-64
2023/10/19 02:38:17;;;;;;;2.38;2.17;;;15.80;70.10;;;;;;5115565;28;20210;-64
2023/10/19 02:40:42;;;;;;;2.20;2.00;;;15.80;70.10;;;;;;5115698;28;20226;-65
2023/10/19 02:43:08;;;;;;;2.30;2.10;;;15.80;70.10;;;;;;5114745;28;20173;-66
2023/10/19 02:45:34;;;;;;;2.00;1.90;;;15.80;70.10;;;;;;5097465;28;20173;-64
2023/10/19 02:48:00;;;;;;;2.15;1.95;;;15.80;70.10;;;;;;5115342;28;20169;-64
2023/10/19 02:50:26;;;;;;;2.08;1.95;;;15.70;70.10;;;;;;5114338;28;20235;-64
2023/10/19 02:52:53;;;;;;;2.47;2.25;;;15.80;70.20;;;;;;5115132;28;20221;-64
2023/10/19 02:55:23;;;;;;;2.05;1.92;;;15.70;70.10;;;;;;5115058;28;20699;-64
2023/10/19 02:57:50;;;;;;;2.58;2.20;;;15.80;70.20;;;;;;5114132;28;20242;-64
2023/10/19 03:00:19;;;;;;;2.33;2.13;;;15.70;70.20;;;;;;5114831;28;20173;-65
2023/10/19 03:02:45;;;;;;;2.30;2.10;;;15.80;70.20;;;;;;5114523;28;20185;-64
2023/10/19 03:05:14;;;;;;;1.77;1.67;;;15.80;70.20;;;;;;5114881;28;20219;-64
2023/10/19 03:07:43;;;;;;;1.90;1.80;;;15.80;70.20;;;;;;5115104;28;20192;-64
2023/10/19 03:10:22;;;;;;;2.05;1.90;;;15.70;70.20;;;;;;5113897;28;20234;-64
2023/10/19 03:12:49;;;;;;;2.35;2.15;;;15.80;70.30;;;;;;5115020;28;20181;-64
2023/10/19 03:15:15;;;;;;;2.85;1.85;;;15.70;70.20;;;;;;5114583;28;20185;-64
2023/10/19 03:17:40;;;;;;;2.10;2.00;;;15.70;70.20;;;;;;5114274;28;20256;-64
2023/10/19 03:20:07;;;;;;;2.40;2.20;;;15.70;70.20;;;;;;5114791;28;20169;-64
2023/10/19 03:22:34;;;;;;;2.20;2.00;;;15.70;70.20;;;;;;5114700;28;20211;-64
2023/10/19 03:25:43;;;;;;;2.05;1.95;;;15.70;70.20;;;;;;5113775;28;20282;-63
2023/10/19 03:27:45;;;;;;;2.40;2.20;;;15.70;70.20;;;;;;5114496;28;20184;-64
2023/10/19 03:30:15;;;;;;;2.15;1.95;;;15.80;70.30;;;;;;5114540;28;20209;-64
2023/10/19 03:32:41;;;;;;;1.77;1.67;;;15.70;70.30;;;;;;5113927;28;20180;-64
2023/10/19 03:35:07;;;;;;;2.10;1.88;;;15.80;70.30;;;;;;5114450;28;20173;-65
2023/10/19 03:37:35;;;;;;;2.10;1.90;;;15.70;70.30;;;;;;5114367;28;20169;-65
2023/10/19 03:40:05;;;;;;;2.05;1.92;;;15.70;70.30;;;;;;5113420;28;20710;-64
2023/10/19 03:42:40;;;;;;;2.72;1.75;;;15.70;70.30;;;;;;5114139;28;20232;-65
2023/10/19 03:45:12;;;;;;;2.13;1.98;;;15.70;70.30;;;;;;5113591;28;20195;-64
2023/10/19 03:47:38;;;;;;;2.15;2.05;;;15.70;70.30;;;;;;5114251;28;20201;-63
2023/10/19 03:50:07;;;;;;;2.22;2.13;;;15.70;70.40;;;;;;5114068;28;20248;-64
2023/10/19 03:52:39;;;;;;;1.90;1.80;;;15.80;70.40;;;;;;5113082;28;20217;-64
2023/10/19 03:55:11;;;;;;;2.00;1.90;;;15.70;70.30;;;;;;5114152;28;20177;-64
2023/10/19 03:57:41;;;;;;;1.90;1.80;;;15.70;70.30;;;;;;5114206;28;20183;-65
2023/10/19 04:00:15;;;;;;;2.13;2.03;;;15.70;70.40;;;;;;5113208;28;20226;-65
2023/10/19 04:02:42;;;;;;;1.98;1.88;;;15.70;70.40;;;;;;5113892;28;20173;-64
2023/10/19 04:05:10;;;;;;;2.10;2.00;;;15.80;70.40;;;;;;5113774;28;20546;-64
2023/10/19 04:07:39;;;;;;;1.80;1.70;;;15.70;70.30;;;;;;5113085;28;20184;-64
2023/10/19 04:12:38;;;;;;;2.05;1.90;;;15.70;70.30;;;;;;5113590;28;20192;-64
2023/10/19 04:15:15;;;;;;;2.20;2.03;;;15.70;70.40;;;;;;5112982;28;20588;-64
2023/10/19 04:17:42;;;;;;;2.10;2.00;;;15.70;70.40;;;;;;5113513;28;20226;-64
2023/10/19 04:22:46;;;;;;;1.98;1.85;;;15.70;70.40;;;;;;5113603;28;20304;-64
2023/10/19 04:25:13;;;;;;;2.40;2.20;;;15.70;70.40;;;;;;5113440;28;20242;-64
2023/10/19 04:27:41;;;;;;;1.75;1.65;;;15.70;70.50;;;;;;5112734;28;20650;-64
2023/10/19 04:30:16;;;;;;;2.15;1.65;;;15.70;70.40;;;;;;5113045;28;20616;-64
2023/10/19 04:32:43;;;;;;;1.85;1.73;;;15.70;70.50;;;;;;5113373;28;20646;-64
2023/10/19 04:35:09;;;;;;;1.58;1.48;;;15.70;70.40;;;;;;5112398;28;20181;-64
2023/10/19 04:37:35;;;;;;;2.05;1.90;;;15.70;70.50;;;;;;5113325;28;20175;-65
2023/10/19 04:40:00;;;;;;;1.73;1.63;;;15.70;70.50;;;;;;5113260;28;20273;-64
2023/10/19 04:42:27;;;;;;;1.88;1.77;;;15.70;70.50;;;;;;5112331;28;20582;-65
2023/10/19 04:44:55;;;;;;;2.22;1.95;;;15.70;70.50;;;;;;5113276;28;20260;-64
2023/10/19 04:47:22;;;;;;;1.70;1.60;;;15.70;70.50;;;;;;5112784;28;20646;-65
2023/10/19 04:49:50;;;;;;;2.08;1.98;;;15.70;70.50;;;;;;5112623;28;20295;-64
2023/10/19 04:52:15;;;;;;;1.95;1.83;;;15.70;70.50;;;;;;5112737;28;20221;-64
2023/10/19 04:54:42;;;;;;;1.98;1.88;;;15.70;70.50;;;;;;5112969;28;20191;-66
2023/10/19 04:57:07;;;;;;;2.25;2.00;;;15.70;70.60;;;;;;5112225;28;20290;-65
2023/10/19 04:59:33;;;;;;;2.03;1.92;;;15.70;70.50;;;;;;5113022;28;20259;-65
2023/10/19 05:02:00;;;;;;;1.80;1.70;;;15.70;70.50;;;;;;5112903;28;20244;-64
2023/10/19 05:04:27;;;;;;;2.10;1.90;;;15.70;70.60;;;;;;5112338;28;20302;-64
2023/10/19 05:06:53;;;;;;;2.15;2.05;;;15.70;70.60;;;;;;5112982;28;20206;-64
2023/10/19 05:09:18;;;;;;;1.92;1.83;;;15.70;70.50;;;;;;5112092;28;20309;-64
2023/10/19 05:11:45;;;;;;;1.63;1.52;;;15.70;70.60;;;;;;5112870;28;20737;-65
2023/10/19 05:14:13;;;;;;;1.80;1.70;;;15.70;70.60;;;;;;5112798;28;20549;-64
2023/10/19 05:16:39;;;;;;;1.88;1.77;;;15.70;70.60;;;;;;5112267;28;20172;-65
2023/10/19 05:19:05;;;;;;;1.60;1.50;;;15.70;70.60;;;;;;5112714;28;20177;-64
2023/10/19 05:21:30;;;;;;;1.90;1.80;;;15.70;70.60;;;;;;5113439;28;20230;-64
2023/10/19 05:23:56;;;;;;;1.75;1.65;;;15.70;70.60;;;;;;5116465;28;20195;-65
2023/10/19 05:26:26;;;;;;;1.85;1.75;;;15.70;70.70;;;;;;5116624;28;20661;-64
2023/10/19 05:28:51;;;;;;;1.60;1.50;;;15.70;70.70;;;;;;5117144;28;20236;-64
2023/10/19 05:31:17;;;;;;;1.70;1.60;;;15.70;70.60;;;;;;5116134;28;20730;-65
2023/10/19 05:33:42;;;;;;;1.70;1.60;;;15.70;70.80;;;;;;5116927;28;20181;-64
2023/10/19 05:36:08;;;;;;;1.77;1.67;;;15.70;70.80;;;;;;5116834;28;20161;-65
2023/10/19 05:38:34;;;;;;;1.80;1.70;;;15.70;70.80;;;;;;5115905;28;20208;-65
2023/10/19 05:41:00;;;;;;;1.83;1.73;;;15.70;70.70;;;;;;5116431;28;20193;-66
2023/10/19 05:43:25;;;;;;;1.70;1.60;;;15.70;70.70;;;;;;5116669;28;20201;-64
2023/10/19 05:45:51;;;;;;;1.52;1.35;;;15.60;70.70;;;;;;5116250;28;20169;-64
2023/10/19 05:48:17;;;;;;;2.00;1.90;;;15.60;70.60;;;;;;5116630;28;20652;-64
2023/10/19 05:50:42;;;;;;;1.70;1.60;;;15.60;71.50;;;;;;5116437;28;20260;-65
2023/10/19 05:53:08;;;;;;;1.90;1.80;;;15.60;70.70;;;;;;5115647;28;20271;-64
2023/10/19 05:55:36;;;;;;;1.83;1.73;;;15.60;70.70;;;;;;5116374;28;20207;-65
2023/10/19 05:58:05;;;;;;;1.70;1.60;;;15.60;70.80;;;;;;5116323;28;20173;-64
2023/10/19 06:00:30;;;;;;;1.60;1.50;;;15.60;70.80;;;;;;5115646;28;20428;-65
2023/10/19 06:02:57;;;;;;;1.60;1.50;;;15.60;70.80;;;;;;5116387;28;20541;-65
2023/10/19 06:05:23;;;;;;;1.80;1.70;;;15.60;70.80;;;;;;5116185;28;20265;-63
2023/10/19 06:07:49;;;;;;;1.80;1.70;;;15.60;70.70;;;;;;5115471;28;20173;-64
2023/10/19 06:10:17;;;;;;;1.80;1.70;;;15.70;70.80;;;;;;5115744;28;20770;-65
2023/10/19 06:12:43;;;;;;;1.80;1.70;;;15.70;70.90;;;;;;5115384;28;20183;-65
2023/10/19 06:15:10;;;;;;;1.60;1.50;;;15.80;70.90;;;;;;5115864;28;20195;-65
2023/10/19 06:17:37;;;;;;;1.60;1.50;;;15.90;70.80;;;;;;5115974;28;20177;-64
2023/10/19 06:20:04;;;;;;;1.60;1.50;;;16.10;70.60;;;;;;5115065;28;20620;-65
2023/10/19 06:22:30;;;;;;;1.77;1.67;;;16.20;70.30;;;;;;5115657;28;20640;-64
2023/10/19 06:24:55;;;;;;;1.80;1.70;;;16.40;69.80;;;;;;5115797;28;20180;-64
2023/10/19 06:27:21;;;;;;;1.70;1.60;;;16.60;69.50;;;;;;5114949;28;20181;-64
2023/10/19 06:29:47;;;;;;;1.42;1.40;;;16.70;68.90;;;;;;5115823;28;20216;-64
2023/10/19 06:32:13;;;;;;;1.73;1.60;;;16.90;68.50;;;;;;5115681;28;20215;-65
2023/10/19 06:34:38;;;;;;;1.35;1.30;;;17.10;67.90;;;;;;5113632;28;20678;-64
2023/10/19 06:37:07;;;;;;;1.40;1.30;;;17.30;67.30;;;;;;5115207;28;20206;-65
2023/10/19 06:39:32;;;;;;;1.52;1.42;;;17.30;67.00;;;;;;5115574;28;20246;-65
2023/10/19 06:41:58;;;;;;;1.45;1.30;;;17.50;66.60;;;;;;5114964;28;20623;-64
2023/10/19 06:44:23;;;;;;;1.58;1.48;;;17.60;66.30;;;;;;5115469;28;20541;-64
2023/10/19 06:46:49;;;;;;;1.30;1.20;;;17.60;66.00;;;;;;5115509;28;20165;-64
2023/10/19 06:49:15;;;;;;;1.98;1.65;;;17.70;65.80;;;;;;5114483;28;20211;-64
2023/10/19 06:51:41;;;;;;;1.00;1.00;;;17.70;65.70;;;;;;5114908;28;20313;-64
2023/10/19 06:54:08;;;;;;;1.20;1.10;;;17.80;66.30;;;;;;5115291;28;20197;-64
2023/10/19 06:56:36;;;;;;;1.38;1.27;;;17.80;65.40;;;;;;5114493;28;20179;-65
2023/10/19 06:59:05;;;;;;;1.33;1.20;;;17.80;65.30;;;;;;5114991;28;20203;-65
2023/10/19 07:01:32;;;;;;;1.20;1.10;;;17.80;65.20;;;;;;5115078;28;20184;-65
2023/10/19 07:03:58;;;;;;;1.50;1.40;;;17.80;65.20;;;;;;5114394;28;20173;-65
2023/10/19 07:06:24;;;;;;;1.20;1.10;;;17.90;65.20;;;;;;5115130;28;20207;-65
2023/10/19 07:08:49;;;;;;;1.50;1.40;;;17.80;65.10;;;;;;5114270;28;20205;-65
2023/10/19 07:11:15;;;;;;;1.40;1.30;;;17.80;65.20;;;;;;5114670;28;20289;-65
2023/10/19 07:13:40;;;;;;;1.20;1.10;;;17.80;65.30;;;;;;5114989;28;20628;-65
2023/10/19 07:16:09;;;;;;;1.30;1.20;;;17.80;65.50;;;;;;5114066;28;20631;-64
2023/10/19 07:18:34;;;;;;;1.30;1.20;;;17.70;65.90;;;;;;5114670;28;20226;-65
2023/10/19 07:21:03;;;;;;;1.48;1.38;;;17.60;65.80;;;;;;5114409;28;20169;-64
2023/10/19 07:23:28;;;;;;;1.52;1.30;;;17.60;65.90;;;;;;5113859;28;20177;-64
2023/10/19 07:25:55;;;;;;;1.30;1.20;;;17.60;66.00;;;;;;5114776;28;20169;-64
2023/10/19 07:28:21;;;;;;;1.35;1.25;;;17.60;66.50;;;;;;5114366;28;20173;-64
2023/10/19 07:30:47;;;;;;;1.05;1.05;;;17.50;66.20;;;;;;5113633;28;20654;-64
2023/10/19 07:33:19;;;;;;;1.40;1.30;;;17.50;66.30;;;;;;5114332;28;20256;-65
2023/10/19 07:35:46;;;;;;;1.08;1.08;;;17.40;66.40;;;;;;5114325;28;20708;-65
2023/10/19 07:38:16;;;;;;;2.22;1.38;;;17.40;66.60;;;;;;5113616;28;20181;-65
2023/10/19 07:40:43;;;;;;;1.38;1.27;;;17.30;66.70;;;;;;5114468;28;20538;-65
2023/10/19 07:43:09;;;;;;;1.17;1.17;;;17.30;66.80;;;;;;5096250;28;20169;-64
2023/10/19 07:45:36;;;;;;;1.20;1.10;;;17.20;66.90;;;;;;5113709;28;20177;-64
2023/10/19 07:48:06;;;;;;;1.33;1.23;;;17.20;67.70;;;;;;5113753;28;20225;-64
2023/10/19 07:50:32;;;;;;;1.20;1.10;;;17.20;67.20;;;;;;5114297;28;20244;-65
2023/10/19 07:52:58;;;;;;;1.17;1.10;;;17.20;67.10;;;;;;5113313;28;20232;-65
2023/10/19 07:55:23;;;;;;;1.33;1.23;;;17.20;67.20;;;;;;5114203;28;20173;-65
2023/10/19 07:57:50;;;;;;;1.42;1.33;;;17.20;67.20;;;;;;5114154;28;20165;-65
2023/10/19 08:00:19;;;;;;;1.20;1.05;;;17.10;67.30;;;;;;5112962;28;20257;-65
2023/10/19 08:02:47;;;;;;;1.10;1.10;;;17.10;67.50;;;;;;5113852;28;20169;-65
2023/10/19 08:05:13;;;;;;;1.38;1.27;;;17.10;67.40;;;;;;5112866;28;20181;-65
2023/10/19 08:07:39;;;;;;;0.93;0.93;;;17.00;68.50;;;;;;5113843;28;20536;-65
2023/10/19 08:10:09;;;;;;;1.20;1.10;;;17.00;67.80;;;;;;5113758;28;20215;-66
2023/10/19 08:12:34;;;;;;;1.27;1.17;;;17.00;67.80;;;;;;5112974;28;20214;-65
2023/10/19 08:15:00;;;;;;;1.30;1.20;;;17.00;67.70;;;;;;5113601;28;20172;-65
2023/10/19 08:17:25;;;;;;;1.20;1.13;;;17.00;67.70;;;;;;5113687;28;20670;-64
2023/10/19 08:19:51;;;;;;;1.00;1.00;;;17.00;67.70;;;;;;5112908;28;20635;-64
2023/10/19 08:22:17;;;;;;;0.95;0.90;;;17.00;67.70;;;;;;5113338;28;20170;-65
2023/10/19 08:24:49;;;;;;;1.00;1.00;;;17.00;67.80;;;;;;5113715;28;20711;-64
2023/10/19 08:27:17;;;;;;;1.13;1.13;;;16.90;67.90;;;;;;5112702;28;20254;-64
2023/10/19 08:29:42;;;;;;;1.08;1.08;;;16.90;68.00;;;;;;5113308;28;20254;-64
2023/10/19 08:32:08;;;;;;;1.25;1.15;;;16.90;68.00;;;;;;5113478;28;20173;-65
2023/10/19 08:34:35;;;;;;;1.00;1.00;;;16.90;68.10;;;;;;5112208;28;20177;-65
2023/10/19 08:37:02;;;;;;;1.30;1.20;;;16.90;68.20;;;;;;5113266;28;20173;-65
2023/10/19 08:39:27;;;;;;;1.38;1.27;;;16.90;68.10;;;;;;5113066;28;20506;-65
2023/10/19 08:41:55;;;;;;;1.00;1.00;;;16.90;68.00;;;;;;5112710;28;20180;-65
2023/10/19 08:44:20;;;;;;;1.00;1.00;;;16.90;68.00;;;;;;5112891;28;20781;-64
2023/10/19 08:46:49;;;;;;;1.23;1.23;;;16.90;68.00;;;;;;5095176;28;20248;-65
2023/10/19 08:49:15;;;;;;;1.30;1.20;;;16.90;68.10;;;;;;5112346;28;20197;-64
2023/10/19 08:51:44;;;;;;;1.05;1.05;;;16.90;68.10;;;;;;5112735;28;20225;-65
2023/10/19 08:54:13;;;;;;;1.27;1.20;;;16.90;68.10;;;;;;5112997;28;20203;-65
2023/10/19 08:56:41;;;;;;;1.23;1.13;;;16.90;68.20;;;;;;5111673;28;20173;-65
2023/10/19 08:59:07;;;;;;;1.30;1.20;;;16.90;68.30;;;;;;5112811;28;20526;-65
2023/10/19 09:01:35;;;;;;;1.33;1.25;;;16.90;68.30;;;;;;5112156;28;20173;-64
2023/10/19 09:04:00;;;;;;;1.10;1.10;;;16.90;68.30;;;;;;5112988;28;20206;-65
2023/10/19 09:06:28;;;;;;;1.40;1.20;;;16.80;68.30;;;;;;5112963;28;20180;-64
2023/10/19 09:08:54;;;;;;;0.90;0.90;;;16.80;68.30;;;;;;5112156;28;20250;-64
2023/10/19 09:11:24;;;;;;;1.08;1.08;;;16.80;68.40;;;;;;5112694;28;20181;-65
2023/10/19 09:13:51;;;;;;;1.25;1.15;;;16.80;68.50;;;;;;5113233;28;20582;-64
2023/10/19 09:16:18;;;;;;;1.13;1.02;;;16.70;68.50;;;;;;5111650;28;20250;-64
2023/10/19 09:18:47;;;;;;;0.93;0.93;;;16.70;68.60;;;;;;5112756;28;20642;-65
2023/10/19 09:21:25;;;;;;;1.17;1.00;;;16.70;68.60;;;;;;5112700;28;20268;-64
2023/10/19 09:23:52;;;;;;;1.00;0.90;;;16.70;68.70;;;;;;5112289;28;20177;-65
2023/10/19 09:26:18;;;;;;;1.13;1.13;;;16.60;68.70;;;;;;5112650;28;20188;-64
2023/10/19 09:28:47;;;;;;;0.98;0.98;;;16.70;68.80;;;;;;5094738;28;20169;-65
2023/10/19 09:31:13;;;;;;;1.20;1.10;;;16.70;68.80;;;;;;5094401;28;20173;-64
2023/10/19 09:33:47;;;;;;;1.20;1.10;;;16.70;68.80;;;;;;5112697;28;20585;-65
2023/10/19 09:36:13;;;;;;;0.93;0.93;;;16.60;68.80;;;;;;5095203;28;20643;-66
2023/10/19 09:38:48;;;;;;;1.10;1.00;;;16.60;68.80;;;;;;5112017;28;20180;-64
2023/10/19 09:41:17;;;;;;;1.13;1.02;;;16.70;68.90;;;;;;5112705;28;20222;-65
2023/10/19 09:43:44;;;;;;;1.27;1.17;;;16.60;68.90;;;;;;5094291;28;20169;-65
2023/10/19 09:46:13;;;;;;;1.00;1.00;;;16.60;69.00;;;;;;5112448;28;20173;-65
2023/10/19 09:48:45;;;;;;;1.27;1.17;;;16.60;68.90;;;;;;5112222;28;20202;-65
2023/10/19 09:51:11;;;;;;;0.90;0.90;;;16.70;68.90;;;;;;5111640;28;20231;-65
2023/10/19 09:53:37;;;;;;;1.08;1.08;;;16.70;68.90;;;;;;5112520;28;20177;-64
2023/10/19 09:56:06;;;;;;;0.95;0.95;;;16.70;68.90;;;;;;5094441;28;20173;-64
2023/10/19 09:58:46;;;;;;;1.00;1.00;;;16.70;68.80;;;;;;5111737;28;20222;-65
2023/10/19 10:01:12;;;;;;;1.05;1.05;;;16.70;69.00;;;;;;5094088;28;20198;-65
2023/10/19 10:03:53;;;;;;;0.98;0.98;;;16.70;68.90;;;;;;5112634;28;20170;-65
2023/10/19 10:06:54;;;;;;;1.13;1.05;;;16.70;69.00;;;;;;5111117;28;20230;-64
2023/10/19 10:09:23;;;;;;;1.17;1.08;;;16.70;68.80;;;;;;5091735;28;20213;-65
2023/10/19 10:11:49;;;;;;;0.98;0.98;;;16.70;68.70;;;;;;5115373;28;20222;-64
2023/10/19 10:14:28;;;;;;;0.90;0.90;;;16.80;68.80;;;;;;5116101;28;20227;-65
2023/10/19 10:17:04;;;;;;;1.05;1.05;;;16.80;68.70;;;;;;5116365;28;20177;-65
2023/10/19 10:19:30;;;;;;;0.88;0.88;;;16.80;68.80;;;;;;5115125;28;20181;-64
2023/10/19 10:22:20;;;;;;;0.88;0.88;;;16.80;69.60;;;;;;5116006;28;20180;-65
2023/10/19 10:24:46;;;;;;;0.90;0.90;;;16.80;68.80;;;;;;5115827;28;20600;-65
2023/10/19 10:27:14;;;;;;;1.25;1.15;;;16.80;68.80;;;;;;5114888;28;20180;-64
2023/10/19 10:29:54;;;;;;;1.13;0.85;;;16.80;68.80;;;;;;5115890;28;20293;-64
2023/10/19 10:32:42;;;;;;;0.93;0.90;;;16.80;68.80;;;;;;5115628;28;20173;-64
2023/10/19 10:35:08;;;;;;;1.45;0.90;;;16.80;68.90;;;;;;5115200;28;20511;-66
2023/10/19 10:37:39;;;;;;;1.20;1.10;;;16.70;68.90;;;;;;5115700;28;20176;-65
2023/10/19 10:40:06;;;;;;;1.05;1.05;;;16.70;68.90;;;;;;5097379;28;20173;-65
2023/10/19 10:42:31;;;;;;;1.20;1.10;;;16.70;68.90;;;;;;5115582;28;20188;-67
2023/10/19 10:44:58;;;;;;;1.48;0.90;;;16.70;68.90;;;;;;5115475;28;20260;-64
2023/10/19 10:47:24;;;;;;;1.00;1.00;;;16.80;68.90;;;;;;5114881;28;20207;-65
2023/10/19 10:49:54;;;;;;;1.23;1.13;;;16.80;68.90;;;;;;5115545;28;20224;-64
2023/10/19 10:52:33;;;;;;;1.20;1.10;;;16.80;68.90;;;;;;5115088;28;20221;-64
2023/10/19 10:55:10;;;;;;;0.95;0.95;;;16.80;68.80;;;;;;5114446;28;20580;-65
2023/10/19 10:57:37;;;;;;;1.85;1.10;;;16.80;68.60;;;;;;5115109;28;20608;-65
2023/10/19 11:00:15;;;;;;;1.10;1.00;;;16.80;68.80;;;;;;5115302;28;20180;-65
2023/10/19 11:02:45;;;;;;;1.08;0.90;;;16.80;68.80;;;;;;5114590;28;20469;-65
2023/10/19 11:05:12;;;;;;;0.98;0.98;;;16.80;68.90;;;;;;5115057;28;20193;-64
2023/10/19 11:07:40;;;;;;;1.80;1.25;;;16.80;68.80;;;;;;5115036;28;20233;-65
2023/10/19 11:10:06;;;;;;;1.10;1.02;;;16.80;68.90;;;;;;5114104;28;20208;-65
2023/10/19 11:12:32;;;;;;;0.95;0.95;;;16.80;68.90;;;;;;5115172;28;20578;-65
2023/10/19 11:15:09;;;;;;;1.00;1.00;;;16.80;68.90;;;;;;5114942;28;20219;-65
2023/10/19 11:17:41;;;;;;;0.75;0.75;;;16.80;69.00;;;;;;5115000;28;20214;-64
2023/10/19 11:20:07;;;;;;;1.40;1.30;;;16.70;69.00;;;;;;5096884;28;20177;-65
2023/10/19 11:22:33;;;;;;;1.15;1.08;;;16.80;69.00;;;;;;5113810;28;20214;-65
2023/10/19 11:25:22;;;;;;;1.20;1.10;;;16.80;69.00;;;;;;5114837;28;20181;-65
2023/10/19 11:27:47;;;;;;;0.90;0.90;;;16.80;69.10;;;;;;5098264;28;20165;-65
2023/10/19 11:30:31;;;;;;;1.08;1.08;;;16.80;69.00;;;;;;5113617;28;20204;-66
2023/10/19 11:32:57;;;;;;;0.93;0.93;;;16.80;69.00;;;;;;5114618;28;20583;-65
2023/10/19 11:35:25;;;;;;;0.85;0.85;;;16.80;69.00;;;;;;5114469;28;20208;-66
2023/10/19 11:37:56;;;;;;;0.95;0.90;;;16.80;68.90;;;;;;5113772;28;20698;-64
2023/10/19 11:40:22;;;;;;;1.00;1.00;;;16.90;69.00;;;;;;5114375;28;20185;-65
2023/10/19 11:42:48;;;;;;;1.08;1.02;;;16.90;68.90;;;;;;5114410;28;20208;-65
2023/10/19 11:45:14;;;;;;;0.98;0.98;;;16.80;68.90;;;;;;5113435;28;20177;-65
2023/10/19 11:47:39;;;;;;;1.02;0.93;;;16.80;69.00;;;;;;5114150;28;20173;-64
2023/10/19 11:50:06;;;;;;;0.90;0.90;;;16.80;69.10;;;;;;5114009;28;20227;-64
2023/10/19 11:52:33;;;;;;;1.00;1.00;;;16.80;69.10;;;;;;5113483;28;20228;-65
2023/10/19 11:54:58;;;;;;;1.20;1.10;;;16.80;69.20;;;;;;5114105;28;20165;-65
2023/10/19 11:57:24;;;;;;;0.90;0.90;;;16.80;69.20;;;;;;5113184;28;20234;-65
2023/10/19 11:59:59;;;;;;;0.98;0.98;;;16.90;69.10;;;;;;5114039;28;20177;-65
2023/10/19 12:02:24;;;;;;;0.82;0.82;;;16.90;69.00;;;;;;5114185;28;20176;-65
2023/10/19 12:04:50;;;;;;;1.42;1.10;;;16.90;68.90;;;;;;5113509;28;20170;-65
2023/10/19 12:07:15;;;;;;;1.10;1.00;;;16.90;69.00;;;;;;5113772;28;20165;-64
2023/10/19 12:09:41;;;;;;;1.20;1.10;;;16.90;69.10;;;;;;5113733;28;20295;-65
2023/10/19 12:12:08;;;;;;;1.02;0.95;;;16.90;69.20;;;;;;5112860;28;20299;-64
2023/10/19 12:14:35;;;;;;;1.75;0.93;;;16.80;69.30;;;;;;5113539;28;20177;-65
2023/10/19 12:17:02;;;;;;;1.05;0.90;;;16.90;69.40;;;;;;5113822;28;20200;-65
2023/10/19 12:19:30;;;;;;;1.00;0.90;;;16.90;69.70;;;;;;5113017;28;20248;-65
2023/10/19 12:21:56;;;;;;;0.93;0.90;;;16.90;69.30;;;;;;5114010;28;20176;-64
2023/10/19 12:24:23;;;;;;;1.52;1.17;;;17.00;69.10;;;;;;5113411;28;20253;-64
2023/10/19 12:26:48;;;;;;;1.20;0.95;;;17.00;69.10;;;;;;5113034;28;20192;-64
2023/10/19 12:29:17;;;;;;;1.40;1.00;;;17.00;69.00;;;;;;5113204;28;20204;-65
2023/10/19 12:31:42;;;;;;;1.67;1.23;;;17.10;69.00;;;;;;5112702;28;20212;-65
2023/10/19 12:34:08;;;;;;;1.70;1.20;;;17.10;69.00;;;;;;5112582;28;20200;-66
2023/10/19 12:36:35;;;;;;;1.38;1.02;;;17.00;69.10;;;;;;5113426;28;20177;-66
2023/10/19 12:39:00;;;;;;;0.82;0.82;;;17.00;69.20;;;;;;5113098;28;20254;-65
2023/10/19 12:41:27;;;;;;;1.38;1.27;;;17.00;69.40;;;;;;5112570;28;20255;-65
2023/10/19 12:43:57;;;;;;;1.15;0.93;;;16.90;69.40;;;;;;5113137;28;20173;-64
2023/10/19 12:46:25;;;;;;;1.05;1.00;;;16.90;69.60;;;;;;5113153;28;20177;-65
2023/10/19 12:48:55;;;;;;;1.90;0.98;;;16.90;69.50;;;;;;5113126;28;20640;-64
2023/10/19 12:51:24;;;;;;;1.00;1.00;;;16.90;69.50;;;;;;5112784;28;20226;-65
2023/10/19 12:53:53;;;;;;;0.85;0.85;;;16.90;69.60;;;;;;5112745;28;20176;-64
2023/10/19 12:56:19;;;;;;;1.98;1.00;;;16.90;69.60;;;;;;5112833;28;20188;-66
2023/10/19 12:58:45;;;;;;;1.10;1.00;;;16.80;69.60;;;;;;5112658;28;20652;-65
2023/10/19 13:01:16;;;;;;;1.15;0.70;;;16.80;69.70;;;;;;5112287;28;20208;-65
2023/10/19 13:03:45;;;;;;;1.13;0.93;;;16.80;69.80;;;;;;5113167;28;20173;-64
2023/10/19 13:06:14;;;;;;;1.90;1.15;;;16.70;69.80;;;;;;5112852;28;20173;-64
2023/10/19 13:08:40;;;;;;;1.15;1.05;;;16.70;69.80;;;;;;5111975;28;20171;-64
2023/10/19 13:11:06;;;;;;;0.80;0.77;;;16.70;69.80;;;;;;5113072;28;20177;-65
2023/10/19 13:13:32;;;;;;;1.10;0.98;;;16.70;69.80;;;;;;5112896;28;20169;-64